Time;durP1;ratioP1;P1;durP2;ratioP2;P2;SDS_P1;SDS_P2;PMS_P1;PMS_P2;Temp;Humidity;BMP_temperature;BMP_pressure;BME280_temperature;BME280_humidity;BME280_pressure;Samples;Min_cycle;Max_cycle;Signal;HPM_P1;HPM_P2
2022/06/25 00:01:56;;;;;;;5.30;4.45;;;;;;;;;;4451443;32;20295;-57
2022/06/25 00:07:05;;;;;;;5.93;2.78;;;;;;;;;;4451335;32;20275;-56
2022/06/25 00:09:31;;;;;;;5.80;2.72;;;;;;;;;;4450968;32;20208;-57
2022/06/25 00:14:40;;;;;;;4.65;2.95;;;;;;;;;;4451345;32;20257;-56
2022/06/25 00:17:06;;;;;;;3.47;2.37;;;;;;;;;;4451609;32;20217;-56
2022/06/25 00:19:32;;;;;;;3.35;2.80;;;;;;;;;;4451037;32;20200;-56
2022/06/25 00:21:57;;;;;;;3.65;2.78;;;;;;;;;;4450934;32;20216;-56
2022/06/25 00:24:23;;;;;;;4.60;3.65;;;;;;;;;;4451062;32;20319;-57
2022/06/25 00:26:48;;;;;;;4.87;2.50;;;;;;;;;;4450802;32;20283;-57
2022/06/25 00:29:14;;;;;;;4.25;3.00;;;;;;;;;;4451170;32;20269;-57
2022/06/25 00:31:40;;;;;;;4.57;3.20;;;;;;;;;;4450895;32;20262;-57
2022/06/25 00:34:06;;;;;;;5.55;3.35;;;;;;;;;;4450684;32;20204;-57
2022/06/25 00:36:32;;;;;;;6.35;3.42;;;;;;;;;;4450793;32;20336;-59
2022/06/25 00:38:58;;;;;;;5.62;3.10;;;;;;;;;;4450931;32;20641;-57
2022/06/25 00:41:23;;;;;;;4.40;3.15;;;;;;;;;;4450279;32;20273;-57
2022/06/25 00:43:49;;;;;;;3.95;2.83;;;;;;;;;;4450557;32;20283;-57
2022/06/25 00:46:15;;;;;;;4.82;2.78;;;;;;;;;;4450079;32;20282;-57
2022/06/25 00:48:40;;;;;;;3.87;2.92;;;;;;;;;;4451110;32;20293;-57
2022/06/25 00:51:10;;;;;;;6.45;3.03;;;;;;;;;;4450919;32;20288;-57
2022/06/25 00:53:38;;;;;;;6.18;3.97;;;;;;;;;;4449299;32;20359;-57
2022/06/25 00:56:05;;;;;;;7.30;3.90;;;;;;;;;;4450414;32;20260;-57
2022/06/25 00:58:32;;;;;;;7.95;4.43;;;;;;;;;;4449566;32;20701;-57
2022/06/25 01:00:59;;;;;;;7.45;3.33;;;;;;;;;;4450898;32;20593;-57
2022/06/25 01:03:27;;;;;;;4.20;3.40;;;;;;;;;;4449359;32;20580;-57
2022/06/25 01:05:53;;;;;;;6.43;3.42;;;;;;;;;;4450243;32;20251;-57
2022/06/25 01:08:19;;;;;;;3.37;2.80;;;;;;;;;;4450517;32;20271;-57
2022/06/25 01:10:45;;;;;;;6.05;3.67;;;;;;;;;;4450204;32;20200;-57
2022/06/25 01:13:10;;;;;;;4.22;3.83;;;;;;;;;;4450088;32;20216;-57
2022/06/25 01:15:36;;;;;;;5.03;3.25;;;;;;;;;;4450589;32;20548;-57
2022/06/25 01:18:02;;;;;;;6.07;4.03;;;;;;;;;;4445156;32;20247;-57
2022/06/25 01:20:27;;;;;;;5.10;3.03;;;;;;;;;;4433797;32;20209;-57
2022/06/25 01:22:54;;;;;;;4.75;2.28;;;;;;;;;;4434429;32;20247;-57
2022/06/25 01:25:20;;;;;;;4.12;3.12;;;;;;;;;;4434279;32;20744;-57
2022/06/25 01:27:47;;;;;;;9.98;3.05;;;;;;;;;;4433680;32;20368;-57
2022/06/25 01:30:13;;;;;;;4.55;2.83;;;;;;;;;;4434478;32;20213;-57
2022/06/25 01:32:39;;;;;;;4.00;3.10;;;;;;;;;;4433638;32;20262;-57
2022/06/25 01:35:05;;;;;;;5.95;2.75;;;;;;;;;;4434409;32;20233;-57
2022/06/25 01:37:32;;;;;;;11.07;2.87;;;;;;;;;;4443356;32;20237;-57
2022/06/25 01:39:57;;;;;;;7.40;2.78;;;;;;;;;;4449798;32;20264;-57
2022/06/25 01:45:09;;;;;;;5.00;3.67;;;;;;;;;;4448871;32;20728;-57
2022/06/25 01:47:35;;;;;;;2.90;2.33;;;;;;;;;;4449638;32;20296;-56
2022/06/25 01:50:01;;;;;;;5.00;3.15;;;;;;;;;;4449742;32;20670;-56
2022/06/25 01:52:26;;;;;;;5.22;2.62;;;;;;;;;;4449573;32;20671;-56
2022/06/25 01:54:52;;;;;;;6.65;2.50;;;;;;;;;;4449871;32;20231;-56
2022/06/25 01:57:17;;;;;;;5.50;2.67;;;;;;;;;;4447299;32;20729;-56
2022/06/25 01:59:44;;;;;;;4.12;3.40;;;;;;;;;;4449229;32;20219;-57
2022/06/25 02:02:09;;;;;;;3.22;2.45;;;;;;;;;;4448233;32;20330;-57
2022/06/25 02:04:35;;;;;;;7.22;3.10;;;;;;;;;;4449604;32;20518;-56
2022/06/25 02:07:01;;;;;;;3.90;2.65;;;;;;;;;;4449142;32;20267;-56
2022/06/25 02:09:26;;;;;;;3.72;2.58;;;;;;;;;;4449302;32;20234;-56
2022/06/25 02:11:52;;;;;;;6.28;2.60;;;;;;;;;;4448034;32;20216;-56
2022/06/25 02:14:17;;;;;;;7.20;2.90;;;;;;;;;;4447964;32;20340;-55
2022/06/25 02:16:43;;;;;;;4.47;3.28;;;;;;;;;;4449382;32;20531;-56
2022/06/25 02:19:08;;;;;;;4.40;3.42;;;;;;;;;;4449702;32;20303;-56
2022/06/25 02:21:35;;;;;;;5.32;4.35;;;;;;;;;;4449028;32;20326;-56
2022/06/25 02:24:01;;;;;;;4.55;3.40;;;;;;;;;;4449405;32;20237;-57
2022/06/25 02:26:26;;;;;;;3.08;2.75;;;;;;;;;;4449048;32;20614;-56
2022/06/25 02:28:52;;;;;;;4.15;2.60;;;;;;;;;;4449324;32;20280;-56
2022/06/25 02:31:18;;;;;;;3.20;2.55;;;;;;;;;;4450365;32;20207;-56
2022/06/25 02:33:43;;;;;;;3.95;3.30;;;;;;;;;;4449340;32;20212;-56
2022/06/25 02:36:09;;;;;;;3.20;2.42;;;;;;;;;;4449340;32;20288;-56
2022/06/25 02:38:34;;;;;;;3.20;2.37;;;;;;;;;;4449606;32;20619;-57
2022/06/25 02:41:00;;;;;;;4.30;2.83;;;;;;;;;;4447858;32;20352;-57
2022/06/25 02:43:25;;;;;;;3.05;2.47;;;;;;;;;;4450072;32;20204;-57
2022/06/25 02:45:51;;;;;;;4.07;3.00;;;;;;;;;;4448103;32;20527;-58
2022/06/25 02:48:16;;;;;;;2.87;2.42;;;;;;;;;;4449231;32;20704;-57
2022/06/25 02:50:42;;;;;;;8.95;3.15;;;;;;;;;;4449656;32;20204;-57
2022/06/25 02:53:07;;;;;;;4.03;2.70;;;;;;;;;;4449592;32;20221;-57
2022/06/25 03:01:01;;;;;;;5.68;3.33;;;;;;;;;;4449222;32;20560;-56
2022/06/25 03:03:27;;;;;;;3.95;2.85;;;;;;;;;;4449666;32;20236;-56
2022/06/25 03:05:52;;;;;;;5.03;3.10;;;;;;;;;;4448719;32;20208;-57
2022/06/25 03:08:18;;;;;;;6.62;3.30;;;;;;;;;;4449101;32;20257;-56
2022/06/25 03:10:44;;;;;;;6.10;3.45;;;;;;;;;;4450843;32;20528;-57
2022/06/25 03:13:10;;;;;;;19.48;3.85;;;;;;;;;;4451791;32;20352;-57
2022/06/25 03:15:36;;;;;;;6.78;3.75;;;;;;;;;;4452079;32;20201;-57
2022/06/25 03:18:02;;;;;;;10.02;5.47;;;;;;;;;;4450924;32;20659;-56
2022/06/25 03:20:28;;;;;;;14.07;6.15;;;;;;;;;;4452019;32;20552;-57
2022/06/25 03:22:53;;;;;;;11.15;5.68;;;;;;;;;;4451608;32;20217;-56
2022/06/25 03:25:19;;;;;;;8.63;4.82;;;;;;;;;;4437604;32;20360;-56
2022/06/25 03:27:44;;;;;;;10.40;5.35;;;;;;;;;;4451716;32;20565;-56
2022/06/25 03:30:10;;;;;;;16.27;5.53;;;;;;;;;;4451622;32;20228;-57
2022/06/25 03:32:35;;;;;;;7.78;4.60;;;;;;;;;;4451897;32;20579;-56
2022/06/25 03:35:01;;;;;;;4.47;3.30;;;;;;;;;;4451706;32;20201;-56
2022/06/25 03:37:26;;;;;;;5.47;3.25;;;;;;;;;;4451615;32;20342;-56
2022/06/25 03:39:51;;;;;;;4.55;2.87;;;;;;;;;;4450113;32;20228;-56
2022/06/25 03:42:17;;;;;;;7.75;3.65;;;;;;;;;;4451577;32;20251;-57
2022/06/25 03:44:42;;;;;;;3.67;2.80;;;;;;;;;;4451813;32;20609;-57
2022/06/25 03:47:08;;;;;;;3.95;2.42;;;;;;;;;;4451565;32;20228;-57
2022/06/25 03:49:33;;;;;;;9.77;2.92;;;;;;;;;;4451586;32;20205;-57
2022/06/25 03:51:59;;;;;;;5.60;3.25;;;;;;;;;;4451501;32;20627;-57
2022/06/25 03:54:25;;;;;;;5.03;3.37;;;;;;;;;;4451442;32;20282;-56
2022/06/25 03:56:50;;;;;;;3.78;2.90;;;;;;;;;;4451174;32;20274;-57
2022/06/25 03:59:16;;;;;;;6.62;2.50;;;;;;;;;;4451362;32;20575;-57
2022/06/25 04:01:41;;;;;;;5.85;3.17;;;;;;;;;;4451188;32;20283;-57
2022/06/25 04:04:07;;;;;;;4.57;3.47;;;;;;;;;;4450318;32;20260;-57
2022/06/25 04:06:32;;;;;;;3.97;3.22;;;;;;;;;;4439652;32;20225;-57
2022/06/25 04:08:58;;;;;;;7.18;3.37;;;;;;;;;;4435846;32;20219;-57
2022/06/25 04:11:24;;;;;;;8.75;3.45;;;;;;;;;;4435394;32;20221;-56
2022/06/25 04:13:49;;;;;;;6.35;4.40;;;;;;;;;;4435779;32;20340;-56
2022/06/25 04:16:15;;;;;;;9.75;3.95;;;;;;;;;;4436391;32;20221;-57
2022/06/25 04:18:40;;;;;;;6.53;3.85;;;;;;;;;;4435881;32;20217;-56
2022/06/25 04:21:06;;;;;;;5.68;4.00;;;;;;;;;;4435554;32;20223;-56
2022/06/25 04:23:32;;;;;;;4.78;3.70;;;;;;;;;;4447627;32;20233;-56
2022/06/25 04:25:57;;;;;;;15.10;4.15;;;;;;;;;;4435578;32;20545;-57
2022/06/25 04:31:07;;;;;;;7.28;3.65;;;;;;;;;;4435546;32;20714;-56
2022/06/25 04:33:32;;;;;;;7.03;5.18;;;;;;;;;;4435868;32;20213;-56
2022/06/25 04:35:59;;;;;;;7.75;4.10;;;;;;;;;;4435465;32;20205;-56
2022/06/25 04:38:25;;;;;;;4.57;3.67;;;;;;;;;;4451119;32;20204;-57
2022/06/25 04:40:50;;;;;;;7.87;5.40;;;;;;;;;;4450993;32;20238;-59
2022/06/25 04:43:16;;;;;;;6.10;4.53;;;;;;;;;;4451342;32;20255;-57
2022/06/25 04:45:41;;;;;;;7.28;4.72;;;;;;;;;;4451204;32;20261;-57
2022/06/25 04:48:07;;;;;;;5.55;3.90;;;;;;;;;;4450839;32;20739;-57
2022/06/25 04:50:32;;;;;;;10.98;4.60;;;;;;;;;;4451032;32;20281;-56
2022/06/25 04:52:57;;;;;;;6.35;4.10;;;;;;;;;;4450771;32;20243;-56
2022/06/25 04:55:23;;;;;;;5.00;4.32;;;;;;;;;;4450678;32;20227;-56
2022/06/25 04:57:49;;;;;;;7.15;4.07;;;;;;;;;;4450497;32;20391;-56
2022/06/25 05:00:14;;;;;;;10.40;4.55;;;;;;;;;;4450674;32;20197;-56
2022/06/25 05:02:40;;;;;;;8.60;3.40;;;;;;;;;;4450528;32;20212;-56
2022/06/25 05:05:06;;;;;;;12.80;4.62;;;;;;;;;;4448281;32;20192;-56
2022/06/25 05:07:32;;;;;;;6.22;4.20;;;;;;;;;;4446879;32;20255;-56
2022/06/25 05:09:58;;;;;;;8.90;5.32;;;;;;;;;;4434793;32;20206;-57
2022/06/25 05:15:08;;;;;;;5.05;3.92;;;;;;;;;;4435285;32;20241;-57
2022/06/25 05:17:34;;;;;;;5.35;4.05;;;;;;;;;;4435060;32;20299;-57
2022/06/25 05:20:00;;;;;;;10.60;3.62;;;;;;;;;;4434945;32;20290;-56
2022/06/25 05:22:25;;;;;;;7.85;3.67;;;;;;;;;;4435015;32;20379;-56
2022/06/25 05:24:51;;;;;;;9.57;3.55;;;;;;;;;;4434661;32;20285;-57
2022/06/25 05:27:16;;;;;;;7.10;4.28;;;;;;;;;;4434923;32;20337;-57
2022/06/25 05:29:42;;;;;;;4.97;3.90;;;;;;;;;;4435242;32;20503;-56
2022/06/25 05:32:08;;;;;;;4.85;3.25;;;;;;;;;;4434439;32;20224;-57
2022/06/25 05:34:33;;;;;;;5.85;3.70;;;;;;;;;;4434384;32;20276;-56
2022/06/25 05:36:58;;;;;;;10.63;4.05;;;;;;;;;;4440576;32;20310;-56
2022/06/25 05:39:24;;;;;;;7.70;3.47;;;;;;;;;;4449887;32;20265;-56
2022/06/25 05:41:49;;;;;;;6.18;4.28;;;;;;;;;;4449762;32;20688;-57
2022/06/25 05:44:15;;;;;;;8.02;4.40;;;;;;;;;;4449763;32;20463;-56
2022/06/25 05:46:40;;;;;;;8.23;3.85;;;;;;;;;;4449739;32;20270;-56
2022/06/25 05:49:06;;;;;;;8.65;3.95;;;;;;;;;;4449784;32;20482;-57
2022/06/25 05:51:31;;;;;;;6.07;4.30;;;;;;;;;;4449817;32;20213;-57
2022/06/25 05:53:57;;;;;;;8.60;4.40;;;;;;;;;;4446460;32;20224;-57
2022/06/25 05:56:22;;;;;;;6.68;4.68;;;;;;;;;;4433944;32;20247;-57
2022/06/25 05:58:48;;;;;;;6.20;4.35;;;;;;;;;;4446536;32;20704;-56
2022/06/25 06:01:13;;;;;;;6.18;3.90;;;;;;;;;;4449360;32;20221;-56
2022/06/25 06:03:39;;;;;;;6.70;4.10;;;;;;;;;;4449657;32;20290;-56
2022/06/25 06:06:04;;;;;;;5.53;4.12;;;;;;;;;;4447634;32;20205;-57
2022/06/25 06:08:30;;;;;;;6.93;4.70;;;;;;;;;;4449377;32;20628;-57
2022/06/25 06:10:55;;;;;;;7.18;4.87;;;;;;;;;;4448616;32;20228;-57
2022/06/25 06:13:21;;;;;;;7.57;4.65;;;;;;;;;;4447977;32;20224;-55
2022/06/25 06:15:47;;;;;;;4.90;3.92;;;;;;;;;;4449327;32;20648;-56
2022/06/25 06:18:12;;;;;;;6.75;4.55;;;;;;;;;;4448987;32;20502;-56
2022/06/25 06:20:37;;;;;;;5.20;4.00;;;;;;;;;;4448667;32;20197;-56
2022/06/25 06:23:03;;;;;;;11.10;5.55;;;;;;;;;;4449230;32;20224;-56
2022/06/25 06:25:29;;;;;;;24.30;6.37;;;;;;;;;;4448135;32;20394;-57
2022/06/25 06:27:54;;;;;;;18.27;5.32;;;;;;;;;;4448973;32;20675;-57
2022/06/25 06:30:19;;;;;;;5.45;4.07;;;;;;;;;;4448916;32;20209;-57
2022/06/25 06:32:46;;;;;;;6.90;4.32;;;;;;;;;;4447501;32;20262;-57
2022/06/25 06:35:11;;;;;;;13.57;3.72;;;;;;;;;;4448749;32;20581;-57
2022/06/25 06:37:37;;;;;;;11.45;4.90;;;;;;;;;;4448570;32;20300;-57
2022/06/25 06:40:04;;;;;;;4.20;3.60;;;;;;;;;;4448757;32;20263;-56
2022/06/25 06:42:30;;;;;;;5.75;3.53;;;;;;;;;;4448982;32;20482;-57
2022/06/25 06:44:55;;;;;;;6.07;4.15;;;;;;;;;;4448610;32;20619;-56
2022/06/25 06:47:21;;;;;;;6.07;4.28;;;;;;;;;;4449065;32;20224;-56
2022/06/25 06:49:46;;;;;;;6.62;3.87;;;;;;;;;;4448487;32;20217;-56
2022/06/25 06:52:11;;;;;;;6.70;4.15;;;;;;;;;;4433437;32;20236;-57
2022/06/25 06:54:37;;;;;;;4.43;3.28;;;;;;;;;;4433431;32;20217;-56
2022/06/25 06:57:03;;;;;;;11.12;3.92;;;;;;;;;;4433617;32;20216;-56
2022/06/25 06:59:28;;;;;;;11.65;4.43;;;;;;;;;;4434407;32;20216;-56
2022/06/25 07:01:54;;;;;;;6.97;4.43;;;;;;;;;;4386472;32;20279;-57
2022/06/25 07:04:19;;;;;;;6.90;4.05;;;;;;;;;;4402808;32;20305;-56
2022/06/25 07:06:45;;;;;;;7.12;3.80;;;;;;;;;;4402982;32;20666;-57
2022/06/25 07:09:10;;;;;;;6.82;3.83;;;;;;;;;;4393728;32;20218;-57
2022/06/25 07:11:36;;;;;;;9.32;3.58;;;;;;;;;;4387998;32;20230;-58
2022/06/25 07:14:06;;;;;;;5.43;3.17;;;;;;;;;;4394669;32;20265;-56
2022/06/25 07:16:33;;;;;;;7.85;4.82;;;;;;;;;;4400711;32;20555;-56
2022/06/25 07:18:59;;;;;;;9.55;4.03;;;;;;;;;;4402667;32;20248;-56
2022/06/25 07:21:25;;;;;;;5.28;4.03;;;;;;;;;;4402565;32;20233;-56
2022/06/25 07:23:51;;;;;;;8.80;4.15;;;;;;;;;;4402987;32;20201;-55
2022/06/25 07:26:17;;;;;;;6.80;4.12;;;;;;;;;;4402850;32;20225;-56
2022/06/25 07:28:43;;;;;;;11.30;4.85;;;;;;;;;;4402387;32;20217;-56
2022/06/25 07:31:08;;;;;;;5.90;3.95;;;;;;;;;;4401241;32;20225;-57
2022/06/25 07:33:34;;;;;;;5.50;4.05;;;;;;;;;;4400468;32;20213;-56
2022/06/25 07:36:00;;;;;;;9.80;4.75;;;;;;;;;;4402039;32;20284;-56
2022/06/25 07:38:25;;;;;;;4.75;4.10;;;;;;;;;;4402848;32;20613;-56
2022/06/25 07:40:51;;;;;;;8.45;4.60;;;;;;;;;;4402666;32;20206;-56
2022/06/25 07:43:17;;;;;;;7.87;4.55;;;;;;;;;;4402451;32;20247;-56
2022/06/25 07:45:43;;;;;;;5.43;4.47;;;;;;;;;;4393902;32;20248;-56
2022/06/25 07:48:09;;;;;;;5.37;4.43;;;;;;;;;;4393834;32;20294;-57
2022/06/25 07:53:19;;;;;;;7.53;4.28;;;;;;;;;;4402185;32;20310;-57
2022/06/25 07:55:47;;;;;;;10.80;4.37;;;;;;;;;;4403348;32;20238;-56
2022/06/25 07:58:13;;;;;;;11.73;4.97;;;;;;;;;;4403950;32;20376;-57
2022/06/25 08:00:39;;;;;;;6.78;4.05;;;;;;;;;;4405070;32;20244;-57
2022/06/25 08:03:05;;;;;;;7.30;5.00;;;;;;;;;;4405187;32;20236;-57
2022/06/25 08:05:33;;;;;;;6.68;4.95;;;;;;;;;;4403768;32;20727;-57
2022/06/25 08:07:59;;;;;;;11.10;4.37;;;;;;;;;;4403283;32;20316;-57
2022/06/25 08:10:24;;;;;;;14.90;5.40;;;;;;;;;;4405240;32;20670;-57
2022/06/25 08:12:50;;;;;;;8.15;3.58;;;;;;;;;;4404986;32;20252;-57
2022/06/25 08:15:16;;;;;;;5.28;3.80;;;;;;;;;;4403509;32;20233;-57
2022/06/25 08:17:42;;;;;;;5.22;4.70;;;;;;;;;;4403821;32;20257;-57
2022/06/25 08:20:08;;;;;;;7.05;4.65;;;;;;;;;;4404976;32;20237;-58
2022/06/25 08:22:33;;;;;;;9.52;4.62;;;;;;;;;;4404543;32;20325;-57
2022/06/25 08:24:59;;;;;;;15.52;4.93;;;;;;;;;;4403399;32;20792;-57
2022/06/25 08:27:25;;;;;;;13.20;4.50;;;;;;;;;;4403506;32;20237;-57
2022/06/25 08:29:50;;;;;;;9.98;4.30;;;;;;;;;;4401848;32;20644;-57
2022/06/25 08:32:16;;;;;;;14.55;4.93;;;;;;;;;;4401991;32;20233;-57
2022/06/25 08:34:41;;;;;;;8.00;4.20;;;;;;;;;;4403631;32;20241;-56
2022/06/25 08:37:07;;;;;;;20.45;5.18;;;;;;;;;;4403745;32;20674;-56
2022/06/25 08:39:33;;;;;;;6.55;4.03;;;;;;;;;;4403109;32;20531;-56
2022/06/25 08:42:03;;;;;;;9.13;4.40;;;;;;;;;;4403874;32;20251;-56
2022/06/25 08:44:30;;;;;;;12.82;5.47;;;;;;;;;;4404364;32;20205;-57
2022/06/25 08:46:58;;;;;;;5.62;4.28;;;;;;;;;;4404388;32;20642;-57
2022/06/25 08:49:24;;;;;;;6.45;4.28;;;;;;;;;;4392584;32;20285;-58
2022/06/25 08:51:52;;;;;;;12.30;4.60;;;;;;;;;;4388046;32;20339;-58
2022/06/25 08:54:19;;;;;;;7.12;4.60;;;;;;;;;;4388372;32;20284;-58
2022/06/25 08:56:45;;;;;;;8.85;4.65;;;;;;;;;;4388447;32;20250;-59
2022/06/25 08:59:11;;;;;;;12.00;5.55;;;;;;;;;;4387552;32;20252;-58
2022/06/25 09:01:36;;;;;;;10.98;4.40;;;;;;;;;;4388782;32;20562;-58
2022/06/25 09:04:02;;;;;;;9.05;5.30;;;;;;;;;;4390163;32;20198;-56
2022/06/25 09:06:28;;;;;;;11.12;5.78;;;;;;;;;;4402512;32;20237;-56
2022/06/25 09:09:12;;;;;;;15.27;5.60;;;;;;;;;;4403043;32;20272;-57
2022/06/25 09:11:49;;;;;;;11.07;6.18;;;;;;;;;;4404226;32;20681;-57
2022/06/25 09:14:22;;;;;;;18.20;6.57;;;;;;;;;;4403397;32;20298;-57
2022/06/25 09:16:56;;;;;;;19.00;5.18;;;;;;;;;;4402301;32;20299;-58
2022/06/25 09:19:37;;;;;;;10.77;5.43;;;;;;;;;;4402615;32;20277;-57
2022/06/25 09:22:11;;;;;;;12.57;5.12;;;;;;;;;;4403938;32;20362;-56
2022/06/25 09:24:46;;;;;;;12.85;5.57;;;;;;;;;;4403997;32;20252;-57
2022/06/25 09:27:15;;;;;;;14.48;4.95;;;;;;;;;;4403805;32;20258;-57
2022/06/25 09:29:46;;;;;;;19.58;6.43;;;;;;;;;;4404356;32;20615;-57
2022/06/25 09:32:13;;;;;;;14.75;5.12;;;;;;;;;;4402359;32;20597;-56
2022/06/25 09:34:39;;;;;;;13.27;6.10;;;;;;;;;;4403577;32;20536;-57
2022/06/25 09:37:34;;;;;;;16.62;6.07;;;;;;;;;;4403044;32;20367;-58
2022/06/25 09:39:59;;;;;;;16.25;6.22;;;;;;;;;;4396334;32;20281;-57
2022/06/25 09:42:30;;;;;;;19.77;6.10;;;;;;;;;;4402858;32;20346;-57
2022/06/25 09:45:05;;;;;;;12.68;6.18;;;;;;;;;;4403045;32;20288;-57
2022/06/25 09:47:33;;;;;;;23.77;6.87;;;;;;;;;;4403013;32;20237;-57
2022/06/25 09:50:07;;;;;;;16.98;5.68;;;;;;;;;;4403725;32;20294;-57
2022/06/25 09:52:34;;;;;;;24.33;6.43;;;;;;;;;;4403014;32;20629;-57
2022/06/25 09:54:59;;;;;;;14.18;5.62;;;;;;;;;;4403458;32;20342;-57
2022/06/25 09:57:26;;;;;;;25.00;6.40;;;;;;;;;;4403143;32;20304;-57
2022/06/25 09:59:54;;;;;;;19.30;6.45;;;;;;;;;;4403887;32;20213;-57
2022/06/25 10:02:19;;;;;;;21.37;6.47;;;;;;;;;;4399195;32;20300;-56
2022/06/25 10:04:46;;;;;;;14.85;5.97;;;;;;;;;;4388052;32;20556;-57
2022/06/25 10:07:15;;;;;;;25.50;6.68;;;;;;;;;;4387917;32;20399;-57
2022/06/25 10:09:43;;;;;;;25.40;7.55;;;;;;;;;;4385566;32;20221;-57
2022/06/25 10:12:09;;;;;;;16.75;6.65;;;;;;;;;;4386501;32;20255;-57
2022/06/25 10:14:36;;;;;;;25.33;6.47;;;;;;;;;;4390879;32;20534;-57
2022/06/25 10:17:04;;;;;;;18.65;4.93;;;;;;;;;;4403074;32;20285;-58
2022/06/25 10:19:31;;;;;;;14.05;6.22;;;;;;;;;;4402213;32;20759;-57
2022/06/25 10:22:00;;;;;;;21.27;6.45;;;;;;;;;;4402344;32;20399;-57
2022/06/25 10:24:27;;;;;;;20.70;7.43;;;;;;;;;;4389219;32;20229;-57
2022/06/25 10:26:52;;;;;;;31.42;7.65;;;;;;;;;;4403092;32;20229;-58
2022/06/25 10:29:28;;;;;;;23.98;7.68;;;;;;;;;;4402930;32;20249;-58
2022/06/25 10:32:14;;;;;;;26.12;6.40;;;;;;;;;;4401805;32;20315;-57
2022/06/25 10:34:58;;;;;;;83.40;28.70;;;;;;;;;;4402900;32;20920;-57
2022/06/25 10:37:24;;;;;;;341.50;127.80;;;;;;;;;;4401988;32;20271;-57
2022/06/25 10:39:54;;;;;;;80.70;35.38;;;;;;;;;;4402198;32;20549;-56
2022/06/25 10:45:04;;;;;;;36.08;10.27;;;;;;;;;;4402714;32;20248;-56
2022/06/25 10:47:46;;;;;;;31.70;8.30;;;;;;;;;;4402394;32;20300;-56
2022/06/25 10:50:21;;;;;;;32.47;8.57;;;;;;;;;;4402717;32;20204;-57
2022/06/25 10:53:02;;;;;;;21.15;7.87;;;;;;;;;;4402696;32;20228;-57
2022/06/25 10:55:48;;;;;;;24.98;5.50;;;;;;;;;;4401263;32;20688;-57
2022/06/25 10:58:21;;;;;;;19.83;7.75;;;;;;;;;;4400962;32;20741;-57
2022/06/25 11:01:17;;;;;;;21.40;6.12;;;;;;;;;;4400931;32;20255;-58
2022/06/25 11:03:43;;;;;;;20.88;6.12;;;;;;;;;;4401313;32;20217;-58
2022/06/25 11:06:30;;;;;;;35.00;8.65;;;;;;;;;;4402258;32;20221;-58
2022/06/25 11:09:03;;;;;;;21.95;6.43;;;;;;;;;;4401813;32;20236;-58
2022/06/25 11:11:31;;;;;;;17.65;5.87;;;;;;;;;;4402427;32;20344;-56
2022/06/25 11:13:57;;;;;;;21.23;5.93;;;;;;;;;;4402403;32;20286;-56
2022/06/25 11:16:24;;;;;;;22.87;5.85;;;;;;;;;;4401773;32;20232;-56
2022/06/25 11:18:57;;;;;;;32.10;6.68;;;;;;;;;;4402374;32;20400;-56
2022/06/25 11:21:36;;;;;;;19.10;6.05;;;;;;;;;;4402512;32;20688;-57
2022/06/25 11:24:04;;;;;;;26.70;6.50;;;;;;;;;;4401927;32;20205;-58
2022/06/25 11:29:21;;;;;;;21.35;5.90;;;;;;;;;;4402212;32;20252;-58
2022/06/25 11:31:49;;;;;;;19.75;6.47;;;;;;;;;;4404611;32;20577;-58
2022/06/25 11:34:22;;;;;;;21.77;6.30;;;;;;;;;;4405243;32;20237;-57
2022/06/25 11:37:08;;;;;;;26.45;5.53;;;;;;;;;;4404656;32;20230;-57
2022/06/25 11:39:35;;;;;;;32.92;6.45;;;;;;;;;;4403883;32;20349;-57
2022/06/25 11:42:02;;;;;;;18.70;5.40;;;;;;;;;;4405247;32;20677;-57
2022/06/25 11:44:36;;;;;;;16.23;5.25;;;;;;;;;;4405546;32;20290;-57
2022/06/25 11:47:03;;;;;;;18.33;5.15;;;;;;;;;;4405234;32;20608;-57
2022/06/25 11:49:35;;;;;;;21.73;5.30;;;;;;;;;;4405222;32;20209;-57
2022/06/25 11:52:04;;;;;;;26.15;6.60;;;;;;;;;;4403755;32;20238;-57
2022/06/25 11:54:30;;;;;;;24.33;5.82;;;;;;;;;;4402754;32;20793;-57
2022/06/25 11:56:55;;;;;;;18.37;5.28;;;;;;;;;;4402595;32;20233;-57
2022/06/25 11:59:28;;;;;;;22.10;5.18;;;;;;;;;;4402808;32;20221;-58
2022/06/25 12:01:54;;;;;;;19.27;5.15;;;;;;;;;;4402504;32;20237;-57
2022/06/25 12:04:20;;;;;;;13.80;4.00;;;;;;;;;;4403014;32;20291;-57
2022/06/25 12:06:47;;;;;;;15.77;5.15;;;;;;;;;;4403060;32;20297;-58
2022/06/25 12:09:18;;;;;;;20.80;5.22;;;;;;;;;;4393947;32;20898;-57
2022/06/25 12:11:51;;;;;;;25.77;5.62;;;;;;;;;;4389174;32;20688;-58
2022/06/25 12:14:21;;;;;;;28.62;5.72;;;;;;;;;;4389633;32;20202;-58
2022/06/25 12:16:48;;;;;;;14.68;5.47;;;;;;;;;;4389592;32;20301;-58
2022/06/25 12:19:14;;;;;;;22.67;6.55;;;;;;;;;;4389667;32;20313;-58
2022/06/25 12:21:39;;;;;;;17.90;5.55;;;;;;;;;;4389321;32;20317;-58
2022/06/25 12:24:06;;;;;;;16.37;5.65;;;;;;;;;;4389791;32;20205;-58
2022/06/25 12:26:36;;;;;;;14.50;6.97;;;;;;;;;;4388146;32;20233;-57
2022/06/25 12:29:23;;;;;;;20.77;6.05;;;;;;;;;;4389574;32;20232;-58
2022/06/25 12:31:58;;;;;;;24.08;6.50;;;;;;;;;;4389363;32;20217;-57
2022/06/25 12:34:25;;;;;;;23.38;6.53;;;;;;;;;;4389256;32;20209;-58
2022/06/25 12:36:51;;;;;;;31.05;6.65;;;;;;;;;;4393725;32;20229;-57
2022/06/25 12:39:36;;;;;;;14.52;5.93;;;;;;;;;;4403221;32;20787;-56
2022/06/25 12:42:03;;;;;;;13.95;5.57;;;;;;;;;;4403263;32;20233;-57
2022/06/25 12:44:33;;;;;;;20.58;5.95;;;;;;;;;;4403070;32;20260;-58
2022/06/25 12:47:01;;;;;;;16.65;6.70;;;;;;;;;;4403799;32;20237;-60
2022/06/25 12:49:44;;;;;;;18.67;6.07;;;;;;;;;;4403756;32;20298;-59
2022/06/25 12:52:11;;;;;;;19.02;6.43;;;;;;;;;;4402585;32;20425;-59
2022/06/25 12:54:45;;;;;;;14.68;5.70;;;;;;;;;;4404510;32;20248;-59
2022/06/25 12:57:27;;;;;;;17.42;5.82;;;;;;;;;;4402657;32;20550;-59
2022/06/25 12:59:54;;;;;;;17.33;6.32;;;;;;;;;;4404452;32;20244;-59
2022/06/25 13:02:20;;;;;;;20.23;5.68;;;;;;;;;;4404626;32;20300;-59
2022/06/25 13:04:46;;;;;;;20.67;6.03;;;;;;;;;;4404611;32;20249;-58
2022/06/25 13:07:12;;;;;;;28.95;6.25;;;;;;;;;;4404179;32;20245;-59
2022/06/25 13:09:42;;;;;;;17.33;5.85;;;;;;;;;;4404604;32;20255;-58
2022/06/25 13:12:08;;;;;;;18.85;5.70;;;;;;;;;;4415672;32;20285;-57
2022/06/25 13:14:34;;;;;;;24.25;7.15;;;;;;;;;;4403916;32;20210;-58
2022/06/25 13:17:00;;;;;;;18.50;6.10;;;;;;;;;;4404389;32;20304;-57
2022/06/25 13:19:27;;;;;;;17.17;5.68;;;;;;;;;;4403946;32;20277;-58
2022/06/25 13:21:52;;;;;;;18.73;5.93;;;;;;;;;;4414398;32;20288;-58
2022/06/25 13:24:18;;;;;;;18.00;5.53;;;;;;;;;;4414931;32;20245;-58
2022/06/25 13:26:44;;;;;;;18.48;6.35;;;;;;;;;;4414378;32;20332;-58
2022/06/25 13:29:09;;;;;;;16.12;6.05;;;;;;;;;;4404350;32;20376;-57
2022/06/25 13:31:35;;;;;;;22.48;6.65;;;;;;;;;;4404158;32;20349;-58
2022/06/25 13:34:01;;;;;;;12.63;6.37;;;;;;;;;;4403413;32;20245;-58
2022/06/25 13:36:27;;;;;;;15.80;5.50;;;;;;;;;;4401648;32;21156;-59
2022/06/25 13:38:53;;;;;;;23.77;7.80;;;;;;;;;;4403447;32;20227;-59
2022/06/25 13:41:20;;;;;;;22.67;7.03;;;;;;;;;;4404051;32;20229;-58
2022/06/25 13:43:45;;;;;;;15.57;6.50;;;;;;;;;;4404523;32;20289;-57
2022/06/25 13:46:11;;;;;;;18.80;6.40;;;;;;;;;;4403289;32;20225;-58
2022/06/25 13:48:37;;;;;;;26.08;6.57;;;;;;;;;;4404780;32;20496;-58
2022/06/25 13:51:02;;;;;;;19.55;7.22;;;;;;;;;;4402947;32;20280;-57
2022/06/25 13:53:30;;;;;;;21.42;6.15;;;;;;;;;;4404136;32;20209;-57
2022/06/25 13:55:56;;;;;;;26.65;7.03;;;;;;;;;;4404540;32;20598;-57
2022/06/25 13:58:22;;;;;;;15.68;6.62;;;;;;;;;;4404538;32;20209;-58
2022/06/25 14:00:48;;;;;;;16.05;6.28;;;;;;;;;;4403937;32;20275;-57
2022/06/25 14:03:13;;;;;;;28.42;7.45;;;;;;;;;;4403666;32;20274;-58
2022/06/25 14:05:39;;;;;;;17.85;7.03;;;;;;;;;;4403918;32;20284;-58
2022/06/25 14:08:04;;;;;;;20.88;6.12;;;;;;;;;;4399630;32;20225;-58
2022/06/25 14:10:30;;;;;;;20.45;6.05;;;;;;;;;;4388691;32;20760;-59
2022/06/25 14:12:55;;;;;;;18.55;6.60;;;;;;;;;;4388401;32;20294;-59
2022/06/25 14:15:21;;;;;;;17.12;6.37;;;;;;;;;;4388292;32;20531;-58
2022/06/25 14:17:46;;;;;;;13.85;6.50;;;;;;;;;;4388295;32;20632;-58
2022/06/25 14:20:12;;;;;;;23.27;8.38;;;;;;;;;;4388552;32;20209;-58
2022/06/25 14:22:37;;;;;;;17.75;6.40;;;;;;;;;;4386837;32;20527;-58
2022/06/25 14:25:23;;;;;;;17.58;6.90;;;;;;;;;;4388769;32;20210;-58
2022/06/25 14:27:49;;;;;;;15.32;7.87;;;;;;;;;;4388576;32;20226;-58
2022/06/25 14:30:15;;;;;;;22.23;6.18;;;;;;;;;;4388044;32;20290;-58
2022/06/25 14:32:40;;;;;;;24.27;6.62;;;;;;;;;;4389035;32;20256;-58
2022/06/25 14:35:07;;;;;;;23.60;6.62;;;;;;;;;;4388252;32;20213;-58
2022/06/25 14:43:17;;;;;;;13.60;5.50;;;;;;;;;;4400788;32;20209;-59
2022/06/25 14:45:42;;;;;;;19.90;5.35;;;;;;;;;;4411454;32;20248;-58
2022/06/25 14:48:08;;;;;;;12.10;6.35;;;;;;;;;;4403114;32;20259;-59
2022/06/25 14:50:34;;;;;;;11.25;5.45;;;;;;;;;;4403821;32;20227;-59
2022/06/25 14:53:00;;;;;;;19.00;6.20;;;;;;;;;;4401767;32;20341;-59
2022/06/25 14:55:25;;;;;;;18.67;7.32;;;;;;;;;;4403079;32;20241;-59
2022/06/25 14:57:51;;;;;;;13.90;5.30;;;;;;;;;;4401871;32;20294;-59
2022/06/25 15:00:17;;;;;;;14.65;5.25;;;;;;;;;;4403295;32;20263;-58
2022/06/25 15:02:45;;;;;;;27.58;6.40;;;;;;;;;;4403791;32;20248;-58
2022/06/25 15:05:12;;;;;;;34.03;6.37;;;;;;;;;;4401722;32;20295;-59
2022/06/25 15:07:37;;;;;;;15.23;5.85;;;;;;;;;;4400262;32;20642;-58
2022/06/25 15:10:04;;;;;;;23.83;6.07;;;;;;;;;;4399209;32;20291;-58